createdAt,value
2023-03-01T00:01:32.128Z,3.50
2023-03-01T00:04:03.234Z,3.40
2023-03-01T00:06:33.445Z,2.67
2023-03-01T00:09:03.614Z,3.40
2023-03-01T00:11:37.040Z,2.90
2023-03-01T00:14:08.637Z,3.20
2023-03-01T00:16:42.001Z,3.72
2023-03-01T00:19:15.963Z,3.43
2023-03-01T00:21:46.371Z,3.13
2023-03-01T00:24:16.352Z,3.33
2023-03-01T00:26:48.848Z,2.87
2023-03-01T00:29:18.738Z,3.40
2023-03-01T00:31:48.709Z,3.20
2023-03-01T00:34:19.074Z,3.37
2023-03-01T00:36:48.973Z,2.93
2023-03-01T00:39:19.604Z,3.50
2023-03-01T00:41:52.007Z,3.30
2023-03-01T00:44:21.882Z,3.27
2023-03-01T00:46:53.084Z,3.07
2023-03-01T00:49:25.420Z,4.03
2023-03-01T00:51:55.236Z,3.50
2023-03-01T00:54:26.818Z,3.57
2023-03-01T00:56:59.273Z,2.90
2023-03-01T00:59:29.877Z,3.43
2023-03-01T01:02:02.449Z,3.40
2023-03-01T01:04:32.945Z,3.00
2023-03-01T01:07:02.792Z,2.97
2023-03-01T01:09:33.390Z,4.10
2023-03-01T01:12:06.405Z,4.13
2023-03-01T01:14:36.986Z,3.45
2023-03-01T01:17:07.346Z,3.53
2023-03-01T01:19:37.401Z,3.10
2023-03-01T01:22:07.707Z,2.87
2023-03-01T01:24:37.962Z,2.73
2023-03-01T01:27:10.670Z,3.10
2023-03-01T01:29:40.889Z,3.20
2023-03-01T01:32:10.848Z,3.10
2023-03-01T01:34:41.110Z,3.13
2023-03-01T01:37:10.965Z,2.93
2023-03-01T01:39:41.428Z,3.27
2023-03-01T01:42:18.705Z,2.67
2023-03-01T01:44:50.931Z,3.47
2023-03-01T01:47:23.932Z,3.60
2023-03-01T01:49:57.366Z,3.45
2023-03-01T01:52:29.668Z,2.90
2023-03-01T01:55:04.691Z,2.90
2023-03-01T01:57:44.130Z,3.75
2023-03-01T02:00:17.140Z,3.77
2023-03-01T02:02:50.193Z,3.60
2023-03-01T02:05:27.948Z,3.10
2023-03-01T02:07:58.531Z,4.10
2023-03-01T02:10:29.244Z,3.30
2023-03-01T02:13:02.064Z,3.60
2023-03-01T02:15:36.561Z,3.70
2023-03-01T02:18:07.893Z,3.95
2023-03-01T02:20:44.644Z,3.50
2023-03-01T02:23:14.613Z,3.50
2023-03-01T02:25:54.897Z,3.60
2023-03-01T02:28:34.754Z,3.13
2023-03-01T02:31:18.261Z,5.43
2023-03-01T02:33:49.520Z,2.10
2023-03-01T02:36:23.466Z,4.00
2023-03-01T02:38:55.868Z,4.20
2023-03-01T02:41:28.481Z,3.78
2023-03-01T02:44:01.350Z,4.22
2023-03-01T02:46:32.792Z,4.70
2023-03-01T02:49:03.469Z,3.72
2023-03-01T02:51:51.698Z,3.50
2023-03-01T02:54:27.828Z,4.05
2023-03-01T02:56:59.960Z,3.25
2023-03-01T02:59:40.757Z,3.58
2023-03-01T03:02:37.117Z,4.63
2023-03-01T03:05:28.027Z,5.13
2023-03-01T03:08:01.965Z,3.67
2023-03-01T03:10:41.350Z,3.78
2023-03-01T03:13:13.693Z,3.72
2023-03-01T03:15:47.266Z,3.22
2023-03-01T03:18:19.839Z,3.78
2023-03-01T03:20:54.620Z,3.35
2023-03-01T03:23:25.378Z,3.75
2023-03-01T03:25:55.478Z,3.95
2023-03-01T03:28:25.524Z,4.00
2023-03-01T03:30:59.681Z,3.20
2023-03-01T03:33:29.877Z,3.28
2023-03-01T03:36:00.601Z,3.65
2023-03-01T03:38:30.486Z,2.72
2023-03-01T03:41:06.507Z,2.92
2023-03-01T03:43:38.470Z,3.25
2023-03-01T03:46:12.185Z,3.70
2023-03-01T03:48:44.964Z,3.45
2023-03-01T03:51:16.767Z,3.35
2023-03-01T03:53:47.449Z,3.17
2023-03-01T03:56:17.856Z,3.13
2023-03-01T03:58:47.740Z,3.10
2023-03-01T04:01:20.494Z,2.70
2023-03-01T04:03:55.532Z,3.13
2023-03-01T04:06:25.629Z,4.18
2023-03-01T04:08:59.232Z,3.47
2023-03-01T04:11:32.419Z,3.38
2023-03-01T04:14:02.783Z,3.35
2023-03-01T04:16:35.173Z,2.83
2023-03-01T04:19:07.456Z,2.70
2023-03-01T04:21:37.851Z,2.78
2023-03-01T04:24:08.286Z,3.28
2023-03-01T04:26:38.609Z,2.90
2023-03-01T04:29:08.361Z,3.97
2023-03-01T04:31:40.980Z,3.25
2023-03-01T04:34:10.742Z,3.38
2023-03-01T04:36:41.429Z,2.92
2023-03-01T04:39:13.430Z,3.35
2023-03-01T04:41:44.750Z,4.80
2023-03-01T04:44:15.041Z,3.78
2023-03-01T04:46:48.095Z,3.95
2023-03-01T04:49:17.876Z,3.10
2023-03-01T04:51:48.262Z,3.72
2023-03-01T04:54:17.995Z,3.17
2023-03-01T04:56:47.976Z,3.40
2023-03-01T04:59:17.792Z,3.75
2023-03-01T05:01:50.128Z,3.17
2023-03-01T05:04:19.931Z,3.08
2023-03-01T05:06:49.874Z,3.22
2023-03-01T05:09:19.833Z,2.67
2023-03-01T05:11:51.154Z,2.78
2023-03-01T05:14:20.977Z,3.08
2023-03-01T05:16:53.350Z,3.45
2023-03-01T05:19:23.874Z,3.40
2023-03-01T05:22:08.248Z,3.58
2023-03-01T05:24:39.684Z,3.50
2023-03-01T05:27:10.371Z,3.20
2023-03-01T05:29:40.536Z,2.88
2023-03-01T05:32:17.173Z,2.85
2023-03-01T05:34:47.806Z,3.08
2023-03-01T05:37:18.385Z,3.15
2023-03-01T05:39:50.661Z,3.50
2023-03-01T05:42:21.040Z,3.70
2023-03-01T05:44:50.773Z,5.07
2023-03-01T05:47:23.388Z,5.90
2023-03-01T05:49:53.231Z,3.50
2023-03-01T05:52:23.387Z,3.72
2023-03-01T05:54:53.154Z,2.95
2023-03-01T05:57:23.746Z,3.00
2023-03-01T05:59:53.504Z,3.08
2023-03-01T06:02:26.546Z,3.30
2023-03-01T06:04:56.691Z,3.00
2023-03-01T06:07:26.510Z,2.90
2023-03-01T06:09:56.305Z,3.08
2023-03-01T06:12:26.802Z,2.75
2023-03-01T06:14:56.565Z,3.00
2023-03-01T06:17:29.924Z,3.13
2023-03-01T06:19:59.729Z,3.00
2023-03-01T06:22:30.356Z,3.05
2023-03-01T06:25:00.176Z,2.70
2023-03-01T06:27:29.992Z,3.15
2023-03-01T06:30:00.103Z,3.20
2023-03-01T06:32:32.854Z,3.15
2023-03-01T06:35:02.705Z,3.78
2023-03-01T06:37:32.940Z,3.63
2023-03-01T06:40:05.791Z,3.00
2023-03-01T06:42:35.590Z,3.15
2023-03-01T06:45:05.797Z,3.55
2023-03-01T06:47:38.789Z,2.90
2023-03-01T06:50:09.450Z,3.33
2023-03-01T06:52:39.513Z,3.28
2023-03-01T06:55:10.777Z,3.95
2023-03-01T06:57:40.943Z,3.10
2023-03-01T07:00:12.613Z,3.73
2023-03-01T07:02:45.032Z,3.00
2023-03-01T07:05:14.890Z,4.17
2023-03-01T07:07:45.035Z,3.20
2023-03-01T07:10:16.168Z,3.57
2023-03-01T07:12:47.495Z,3.20
2023-03-01T07:15:17.338Z,3.60
2023-03-01T07:17:51.987Z,3.13
2023-03-01T07:20:25.556Z,3.57
2023-03-01T07:22:55.645Z,3.00
2023-03-01T07:25:25.539Z,2.93
2023-03-01T07:27:56.112Z,2.70
2023-03-01T07:30:28.445Z,3.80
2023-03-01T07:33:02.107Z,2.77
2023-03-01T07:35:34.538Z,3.10
2023-03-01T07:38:04.823Z,3.10
2023-03-01T07:40:35.038Z,3.00
2023-03-01T07:43:05.058Z,3.60
2023-03-01T07:45:34.866Z,3.67
2023-03-01T07:48:07.814Z,3.10
2023-03-01T07:50:37.636Z,3.03
2023-03-01T07:53:07.542Z,3.00
2023-03-01T07:55:37.325Z,2.80
2023-03-01T07:58:08.329Z,3.50
2023-03-01T08:00:38.200Z,2.97
2023-03-01T08:03:10.757Z,3.00
2023-03-01T08:05:40.581Z,3.13
2023-03-01T08:08:11.416Z,3.97
2023-03-01T08:10:41.256Z,4.00
2023-03-01T08:13:11.114Z,3.47
2023-03-01T08:15:53.837Z,3.53
2023-03-01T08:18:51.471Z,3.57
2023-03-01T08:21:22.421Z,3.43
2023-03-01T08:23:52.231Z,3.90
2023-03-01T08:26:24.254Z,3.93
2023-03-01T08:28:54.204Z,3.70
2023-03-01T08:31:27.372Z,4.57
2023-03-01T08:34:03.470Z,3.83
2023-03-01T08:36:36.484Z,4.13
2023-03-01T08:39:06.890Z,2.90
2023-03-01T08:41:37.141Z,3.10
2023-03-01T08:44:07.595Z,4.30
2023-03-01T08:46:39.973Z,4.60
2023-03-01T08:49:14.916Z,3.90
2023-03-01T08:51:45.687Z,3.67
2023-03-01T08:54:17.593Z,3.80
2023-03-01T08:56:47.410Z,3.33
2023-03-01T08:59:18.577Z,3.67
2023-03-01T09:01:48.717Z,3.57
2023-03-01T09:04:21.216Z,4.70
2023-03-01T09:06:51.866Z,3.87
2023-03-01T09:09:21.691Z,4.00
2023-03-01T09:11:51.939Z,3.30
2023-03-01T09:14:21.827Z,3.00
2023-03-01T09:16:51.764Z,3.83
2023-03-01T09:19:26.336Z,2.90
2023-03-01T09:21:59.359Z,3.27
2023-03-01T09:24:29.293Z,3.17
2023-03-01T09:27:00.055Z,4.00
2023-03-01T09:29:30.612Z,2.80
2023-03-01T09:32:00.718Z,3.57
2023-03-01T09:34:53.154Z,3.30
2023-03-01T09:37:23.015Z,3.53
2023-03-01T09:39:52.868Z,3.23
2023-03-01T09:42:23.092Z,3.20
2023-03-01T09:44:58.871Z,4.20
2023-03-01T09:47:33.120Z,3.93
2023-03-01T09:50:10.091Z,3.17
2023-03-01T09:52:44.155Z,3.00
2023-03-01T09:55:17.152Z,4.07
2023-03-01T09:57:53.191Z,2.73
2023-03-01T10:00:36.952Z,2.80
2023-03-01T10:03:17.199Z,3.37
2023-03-01T10:05:59.300Z,3.40
2023-03-01T10:11:26.658Z,2.90
2023-03-01T10:14:02.428Z,3.40
2023-03-01T10:16:41.921Z,3.23
2023-03-01T10:19:18.556Z,3.57
2023-03-01T10:21:53.562Z,3.83
2023-03-01T10:24:24.201Z,2.60
2023-03-01T10:27:00.233Z,2.80
2023-03-01T10:29:38.385Z,2.83
2023-03-01T10:32:09.744Z,3.30
2023-03-01T10:34:40.677Z,3.00
2023-03-01T10:37:19.351Z,3.53
2023-03-01T10:40:06.941Z,2.57
2023-03-01T10:42:39.572Z,3.83
2023-03-01T10:45:21.993Z,2.73
2023-03-01T10:48:07.757Z,2.83
2023-03-01T10:50:39.920Z,3.10
2023-03-01T10:53:27.716Z,3.60
2023-03-01T10:56:06.440Z,3.40
2023-03-01T10:58:37.225Z,2.80
2023-03-01T11:01:08.898Z,2.90
2023-03-01T11:03:40.857Z,3.33
2023-03-01T11:06:27.319Z,2.97
2023-03-01T11:08:59.796Z,3.03
2023-03-01T11:11:37.352Z,3.97
2023-03-01T11:14:25.008Z,3.83
2023-03-01T11:17:04.444Z,3.53
2023-03-01T11:19:34.766Z,3.83
2023-03-01T11:22:09.807Z,3.60
2023-03-01T11:24:49.377Z,3.33
2023-03-01T11:27:27.354Z,3.57
2023-03-01T11:30:02.826Z,3.00
2023-03-01T11:32:38.405Z,2.83
2023-03-01T11:35:18.258Z,4.00
2023-03-01T11:37:59.452Z,3.87
2023-03-01T11:40:36.627Z,3.50
2023-03-01T11:43:18.277Z,3.77
2023-03-01T11:46:02.910Z,3.60
2023-03-01T11:48:50.322Z,4.37
2023-03-01T11:51:28.008Z,4.37
2023-03-01T11:54:10.592Z,4.43
2023-03-01T11:56:48.016Z,5.93
2023-03-01T11:59:35.557Z,5.10
2023-03-01T12:02:27.545Z,5.47
2023-03-01T12:05:09.183Z,5.00
2023-03-01T12:07:50.350Z,4.20
2023-03-01T12:10:29.462Z,3.97
2023-03-01T12:13:23.115Z,4.40
2023-03-01T12:16:11.108Z,4.57
2023-03-01T12:19:02.849Z,4.40
2023-03-01T12:21:50.394Z,4.83
2023-03-01T12:24:45.837Z,5.33
2023-03-01T12:27:35.612Z,4.23
2023-03-01T12:30:24.707Z,4.13
2023-03-01T12:33:06.753Z,5.27
2023-03-01T12:35:50.076Z,4.00
2023-03-01T12:38:37.681Z,4.50
2023-03-01T12:41:30.772Z,5.10
2023-03-01T12:44:11.807Z,4.53
2023-03-01T12:46:55.589Z,3.50
2023-03-01T12:49:30.683Z,4.60
2023-03-01T12:52:10.505Z,3.60
2023-03-01T12:54:41.480Z,5.37
2023-03-01T12:57:19.326Z,4.40
2023-03-01T13:00:01.834Z,4.83
2023-03-01T13:02:40.350Z,4.87
2023-03-01T13:05:28.044Z,3.67
2023-03-01T13:08:05.339Z,4.30
2023-03-01T13:10:38.767Z,3.87
2023-03-01T13:13:22.299Z,4.47
2023-03-01T13:15:53.053Z,3.93
2023-03-01T13:18:36.728Z,3.60
2023-03-01T13:21:08.258Z,3.77
2023-03-01T13:23:41.610Z,4.23
2023-03-01T13:26:17.878Z,4.43
2023-03-01T13:29:02.249Z,5.17
2023-03-01T13:32:04.886Z,4.17
2023-03-01T13:34:54.414Z,4.60
2023-03-01T13:37:33.116Z,4.30
2023-03-01T13:40:07.993Z,4.97
2023-03-01T13:42:56.235Z,4.70
2023-03-01T13:45:40.034Z,3.63
2023-03-01T13:48:19.048Z,3.93
2023-03-01T13:50:55.019Z,3.70
2023-03-01T13:53:28.550Z,3.60
2023-03-01T13:56:01.520Z,4.10
2023-03-01T13:58:34.224Z,5.17
2023-03-01T14:01:05.586Z,4.43
2023-03-01T14:03:45.452Z,4.23
2023-03-01T14:06:21.168Z,4.20
2023-03-01T14:08:53.972Z,4.67
2023-03-01T14:11:46.861Z,4.37
2023-03-01T14:14:48.649Z,3.33
2023-03-01T14:17:42.949Z,4.97
2023-03-01T14:20:18.540Z,4.30
2023-03-01T14:22:52.385Z,4.70
2023-03-01T14:25:28.881Z,4.00
2023-03-01T14:28:04.482Z,4.43
2023-03-01T14:30:40.050Z,5.10
2023-03-01T14:33:22.443Z,4.40
2023-03-01T14:36:00.784Z,5.07
2023-03-01T14:38:38.807Z,6.03
2023-03-01T14:41:12.148Z,5.13
2023-03-01T14:43:45.207Z,4.63
2023-03-01T14:46:23.628Z,4.93
2023-03-01T14:48:55.133Z,5.40
2023-03-01T14:51:25.540Z,5.50
2023-03-01T14:53:58.893Z,5.03
2023-03-01T14:56:28.928Z,6.43
2023-03-01T14:59:02.327Z,4.23
2023-03-01T15:01:32.465Z,4.63
2023-03-01T15:04:02.661Z,4.87
2023-03-01T15:06:32.928Z,4.90
2023-03-01T15:09:07.470Z,4.43
2023-03-01T15:11:40.421Z,4.97
2023-03-01T15:14:52.203Z,5.00
2023-03-01T15:17:35.445Z,4.40
2023-03-01T15:20:07.990Z,3.87
2023-03-01T15:22:39.359Z,5.00
2023-03-01T15:25:19.025Z,4.70
2023-03-01T15:27:50.486Z,4.10
2023-03-01T15:30:25.508Z,5.10
2023-03-01T15:33:26.000Z,4.83
2023-03-01T15:35:56.806Z,4.40
2023-03-01T15:38:40.208Z,4.00
2023-03-01T15:41:28.068Z,3.87
2023-03-01T15:43:59.554Z,4.37
2023-03-01T15:46:33.786Z,3.73
2023-03-01T15:49:07.385Z,3.87
2023-03-01T15:51:39.198Z,4.03
2023-03-01T15:54:18.555Z,4.50
2023-03-01T15:56:51.616Z,3.87
2023-03-01T15:59:29.679Z,4.30
2023-03-01T16:02:01.593Z,4.10
2023-03-01T16:04:31.689Z,4.10
2023-03-01T16:07:02.140Z,3.70
2023-03-01T16:09:32.544Z,3.30
2023-03-01T16:12:07.107Z,3.40
2023-03-01T16:14:37.641Z,4.33
2023-03-01T16:17:11.033Z,3.70
2023-03-01T16:19:41.422Z,3.87
2023-03-01T16:22:13.551Z,3.70
2023-03-01T16:24:44.590Z,4.50
2023-03-01T16:27:17.095Z,2.80
2023-03-01T16:29:47.619Z,3.57
2023-03-01T16:32:17.571Z,3.83
2023-03-01T16:34:50.502Z,3.67
2023-03-01T16:37:20.654Z,3.60
2023-03-01T16:42:54.874Z,4.57
2023-03-01T16:45:25.569Z,3.60
2023-03-01T16:47:56.292Z,3.50
2023-03-01T16:50:26.334Z,3.50
2023-03-01T16:52:56.192Z,3.73
2023-03-01T16:55:27.846Z,3.67
2023-03-01T16:58:00.271Z,4.37
2023-03-01T17:00:30.869Z,4.40
2023-03-01T17:03:00.722Z,2.87
2023-03-01T17:05:31.297Z,4.20
2023-03-01T17:08:01.101Z,3.20
2023-03-01T17:10:31.030Z,3.83
2023-03-01T17:13:03.459Z,4.37
2023-03-01T17:15:34.235Z,3.57
2023-03-01T17:18:04.482Z,4.20
2023-03-01T17:20:34.574Z,4.27
2023-03-01T17:23:04.634Z,4.60
2023-03-01T17:25:34.537Z,4.50
2023-03-01T17:28:07.209Z,4.00
2023-03-01T17:30:36.984Z,4.70
2023-03-01T17:33:07.140Z,4.03
2023-03-01T17:35:38.175Z,4.40
2023-03-01T17:38:08.405Z,4.33
2023-03-01T17:40:39.998Z,4.70
2023-03-01T17:43:12.727Z,4.03
2023-03-01T17:45:44.687Z,4.20
2023-03-01T17:48:14.899Z,5.30
2023-03-01T17:50:45.180Z,3.80
2023-03-01T17:53:16.077Z,3.53
2023-03-01T17:55:49.474Z,3.97
2023-03-01T17:58:25.805Z,4.30
2023-03-01T18:00:55.628Z,3.90
2023-03-01T18:03:25.428Z,5.40
2023-03-01T18:05:56.811Z,3.83
2023-03-01T18:08:27.710Z,4.60
2023-03-01T18:11:01.428Z,4.40
2023-03-01T18:13:33.835Z,4.63
2023-03-01T18:16:07.364Z,6.57
2023-03-01T18:18:37.539Z,4.03
2023-03-01T18:21:08.380Z,4.10
2023-03-01T18:23:39.780Z,3.77
2023-03-01T18:26:11.432Z,3.27
2023-03-01T18:28:47.665Z,4.60
2023-03-01T18:31:21.719Z,6.37
2023-03-01T18:33:54.788Z,4.70
2023-03-01T18:36:28.198Z,3.93
2023-03-01T18:38:58.396Z,4.20
2023-03-01T18:41:30.192Z,3.70
2023-03-01T18:44:04.330Z,3.77
2023-03-01T18:46:37.962Z,4.13
2023-03-01T18:49:08.457Z,4.03
2023-03-01T18:51:38.703Z,3.47
2023-03-01T18:54:08.653Z,3.80
2023-03-01T18:56:39.030Z,3.60
2023-03-01T18:59:11.442Z,4.23
2023-03-01T19:01:41.605Z,4.20
2023-03-01T19:04:11.374Z,3.73
2023-03-01T19:06:41.536Z,3.63
2023-03-01T19:09:12.117Z,2.93
2023-03-01T19:11:42.040Z,3.60
2023-03-01T19:14:14.453Z,3.40
2023-03-01T19:16:44.313Z,3.77
2023-03-01T19:19:14.846Z,2.80
2023-03-01T19:21:50.623Z,3.00
2023-03-01T19:24:23.161Z,2.73
2023-03-01T19:26:52.972Z,2.97
2023-03-01T19:29:26.310Z,3.90
2023-03-01T19:31:56.197Z,3.57
2023-03-01T19:34:26.111Z,3.43
2023-03-01T19:36:56.260Z,3.07
2023-03-01T19:39:27.535Z,2.77
2023-03-01T19:41:58.184Z,3.53
2023-03-01T19:44:30.542Z,3.50
2023-03-01T19:47:01.151Z,3.90
2023-03-01T19:49:32.272Z,3.43
2023-03-01T19:52:02.567Z,3.07
2023-03-01T19:54:32.383Z,2.87
2023-03-01T19:57:02.786Z,2.90
2023-03-01T19:59:35.091Z,2.50
2023-03-01T20:02:04.891Z,2.67
2023-03-01T20:04:34.659Z,3.20
2023-03-01T20:07:04.341Z,4.13
2023-03-01T20:09:34.155Z,2.37
2023-03-01T20:12:04.272Z,3.57
2023-03-01T20:14:36.593Z,2.70
2023-03-01T20:17:06.471Z,3.23
2023-03-01T20:19:36.296Z,2.80
2023-03-01T20:22:06.236Z,2.70
2023-03-01T20:24:36.059Z,3.13
2023-03-01T20:27:06.315Z,2.80
2023-03-01T20:29:38.673Z,2.90
2023-03-01T20:32:09.941Z,2.50
2023-03-01T20:34:39.972Z,2.47
2023-03-01T20:37:09.811Z,2.93
2023-03-01T20:39:39.682Z,2.00
2023-03-01T20:42:09.549Z,2.30
2023-03-01T20:44:44.393Z,2.60
2023-03-01T20:47:14.621Z,3.27
2023-03-01T20:49:44.407Z,2.90
2023-03-01T20:52:14.249Z,5.27
2023-03-01T20:54:43.947Z,3.70
2023-03-01T20:57:14.175Z,2.70
2023-03-01T20:59:46.510Z,2.60
2023-03-01T21:02:17.030Z,2.53
2023-03-01T21:04:46.716Z,2.77
2023-03-01T21:07:16.759Z,3.30
2023-03-01T21:09:46.523Z,2.70
2023-03-01T21:12:17.493Z,2.50
2023-03-01T21:14:49.896Z,2.87
2023-03-01T21:17:21.697Z,3.80
2023-03-01T21:19:51.425Z,6.23
2023-03-01T21:22:21.585Z,3.60
2023-03-01T21:24:51.712Z,3.43
2023-03-01T21:27:22.179Z,3.07
2023-03-01T21:29:54.605Z,2.60
2023-03-01T21:32:24.878Z,3.10
2023-03-01T21:34:54.768Z,3.10
2023-03-01T21:37:29.577Z,2.50
2023-03-01T21:39:59.834Z,2.57
2023-03-01T21:42:32.266Z,2.20
2023-03-01T21:45:04.697Z,2.77
2023-03-01T21:47:36.229Z,2.63
2023-03-01T21:50:07.643Z,2.07
2023-03-01T21:52:38.292Z,2.20
2023-03-01T21:55:09.245Z,2.60
2023-03-01T21:57:43.822Z,2.80
2023-03-01T22:00:18.148Z,2.87
2023-03-01T22:02:48.733Z,2.87
2023-03-01T22:05:18.934Z,2.27
2023-03-01T22:07:49.407Z,2.47
2023-03-01T22:10:27.324Z,2.63
2023-03-01T22:12:58.168Z,3.33
2023-03-01T22:15:31.010Z,2.70
2023-03-01T22:18:00.822Z,3.33
2023-03-01T22:20:30.797Z,2.73
2023-03-01T22:23:00.600Z,2.80
2023-03-01T22:25:31.079Z,3.10
2023-03-01T22:28:01.561Z,2.37
2023-03-01T22:30:34.438Z,2.23
2023-03-01T22:33:04.413Z,2.77
2023-03-01T22:35:34.416Z,1.83
2023-03-01T22:38:04.356Z,2.53
2023-03-01T22:40:39.027Z,2.70
2023-03-01T22:43:08.932Z,3.57
2023-03-01T22:45:41.382Z,2.30
2023-03-01T22:48:11.152Z,2.40
2023-03-01T22:50:44.499Z,2.83
2023-03-01T22:53:14.341Z,2.30
2023-03-01T22:55:45.092Z,2.57
2023-03-01T22:58:14.886Z,3.00
2023-03-01T23:00:50.688Z,2.43
2023-03-01T23:03:20.582Z,3.37
2023-03-01T23:05:50.462Z,3.40
2023-03-01T23:08:20.274Z,2.23
2023-03-01T23:10:50.605Z,2.30
2023-03-01T23:13:20.355Z,2.50
2023-03-01T23:15:59.154Z,2.50
2023-03-01T23:18:28.934Z,2.30
2023-03-01T23:20:59.143Z,2.90
2023-03-01T23:23:29.324Z,2.20
2023-03-01T23:26:00.796Z,2.57
2023-03-01T23:28:31.020Z,2.00
2023-03-01T23:31:05.257Z,2.90
2023-03-01T23:33:37.761Z,3.53
2023-03-01T23:36:09.093Z,2.30
2023-03-01T23:38:38.921Z,2.17
2023-03-01T23:41:12.475Z,2.50
2023-03-01T23:43:42.326Z,2.27
2023-03-01T23:46:15.139Z,2.20
2023-03-01T23:48:45.418Z,2.57
2023-03-01T23:51:16.040Z,2.23
2023-03-01T23:53:54.057Z,2.93
2023-03-01T23:56:28.844Z,2.50
2023-03-01T23:59:00.998Z,2.93
